sensor_id;sensor_type;location;lat;lon;timestamp;pressure;altitude;pressure_sealevel;temperature;humidity
34241;BME280;20503;50.200;19.508;2023-04-27T00:01:46;101665.04;;;3.27;100.00
34241;BME280;20503;50.200;19.508;2023-04-27T00:06:54;101668.45;;;3.29;100.00
34241;BME280;20503;50.200;19.508;2023-04-27T00:12:02;101662.09;;;3.49;100.00
34241;BME280;20503;50.200;19.508;2023-04-27T00:17:10;101658.67;;;3.66;100.00
34241;BME280;20503;50.200;19.508;2023-04-27T00:22:18;101658.95;;;3.82;100.00
34241;BME280;20503;50.200;19.508;2023-04-27T00:27:25;101660.36;;;3.86;100.00
34241;BME280;20503;50.200;19.508;2023-04-27T00:32:33;101662.08;;;3.87;100.00
34241;BME280;20503;50.200;19.508;2023-04-27T00:37:41;101657.37;;;3.89;100.00
34241;BME280;20503;50.200;19.508;2023-04-27T00:42:48;101658.66;;;3.85;100.00
34241;BME280;20503;50.200;19.508;2023-04-27T00:47:58;101655.26;;;3.73;100.00
34241;BME280;20503;50.200;19.508;2023-04-27T00:53:05;101656.98;;;3.56;100.00
34241;BME280;20503;50.200;19.508;2023-04-27T00:58:13;101663.21;;;3.37;100.00
34241;BME280;20503;50.200;19.508;2023-04-27T01:03:21;101667.42;;;3.11;100.00
34241;BME280;20503;50.200;19.508;2023-04-27T01:08:28;101677.67;;;2.98;100.00
34241;BME280;20503;50.200;19.508;2023-04-27T01:13:36;101663.91;;;2.71;100.00
34241;BME280;20503;50.200;19.508;2023-04-27T01:18:43;101675.80;;;2.59;100.00
34241;BME280;20503;50.200;19.508;2023-04-27T01:23:51;101668.60;;;2.39;100.00
34241;BME280;20503;50.200;19.508;2023-04-27T01:28:59;101676.62;;;2.20;100.00
34241;BME280;20503;50.200;19.508;2023-04-27T01:34:06;101675.84;;;2.09;100.00
34241;BME280;20503;50.200;19.508;2023-04-27T01:39:14;101682.62;;;2.03;100.00
34241;BME280;20503;50.200;19.508;2023-04-27T01:44:22;101688.23;;;1.91;100.00
34241;BME280;20503;50.200;19.508;2023-04-27T01:49:30;101694.20;;;1.74;100.00
34241;BME280;20503;50.200;19.508;2023-04-27T01:54:39;101699.45;;;1.76;100.00
34241;BME280;20503;50.200;19.508;2023-04-27T01:59:46;101697.05;;;1.62;100.00
34241;BME280;20503;50.200;19.508;2023-04-27T02:04:53;101693.29;;;1.53;100.00
34241;BME280;20503;50.200;19.508;2023-04-27T02:10:01;101691.50;;;1.43;100.00
34241;BME280;20503;50.200;19.508;2023-04-27T02:15:08;101697.15;;;1.40;100.00
34241;BME280;20503;50.200;19.508;2023-04-27T02:20:17;101697.89;;;1.31;100.00
34241;BME280;20503;50.200;19.508;2023-04-27T02:25:25;101701.74;;;1.17;100.00
34241;BME280;20503;50.200;19.508;2023-04-27T02:30:30;101699.82;;;1.08;100.00
34241;BME280;20503;50.200;19.508;2023-04-27T02:35:38;101697.13;;;1.08;100.00
34241;BME280;20503;50.200;19.508;2023-04-27T02:40:46;101694.55;;;0.96;100.00
34241;BME280;20503;50.200;19.508;2023-04-27T02:45:53;101691.86;;;0.96;100.00
34241;BME280;20503;50.200;19.508;2023-04-27T02:51:04;101681.05;;;1.18;100.00
34241;BME280;20503;50.200;19.508;2023-04-27T02:56:09;101690.95;;;1.17;100.00
34241;BME280;20503;50.200;19.508;2023-04-27T03:01:17;101700.18;;;1.04;100.00
34241;BME280;20503;50.200;19.508;2023-04-27T03:06:24;101700.18;;;1.04;100.00
34241;BME280;20503;50.200;19.508;2023-04-27T03:11:32;101706.20;;;0.85;100.00
34241;BME280;20503;50.200;19.508;2023-04-27T03:16:40;101706.85;;;0.67;100.00
34241;BME280;20503;50.200;19.508;2023-04-27T03:21:48;101708.45;;;0.58;100.00
34241;BME280;20503;50.200;19.508;2023-04-27T03:26:56;101713.09;;;0.78;100.00
34241;BME280;20503;50.200;19.508;2023-04-27T03:32:05;101717.70;;;0.87;100.00
34241;BME280;20503;50.200;19.508;2023-04-27T03:37:12;101715.38;;;0.94;100.00
34241;BME280;20503;50.200;19.508;2023-04-27T03:42:19;101730.09;;;1.01;100.00
34241;BME280;20503;50.200;19.508;2023-04-27T03:47:27;101727.98;;;1.04;100.00
34241;BME280;20503;50.200;19.508;2023-04-27T03:52:34;101733.84;;;1.20;100.00
34241;BME280;20503;50.200;19.508;2023-04-27T03:57:43;101741.80;;;1.33;100.00
34241;BME280;20503;50.200;19.508;2023-04-27T04:02:50;101741.84;;;1.53;100.00
34241;BME280;20503;50.200;19.508;2023-04-27T04:07:58;101745.66;;;1.82;100.00
34241;BME280;20503;50.200;19.508;2023-04-27T04:13:05;101750.67;;;1.86;100.00
34241;BME280;20503;50.200;19.508;2023-04-27T04:18:13;101754.87;;;1.79;100.00
34241;BME280;20503;50.200;19.508;2023-04-27T04:23:21;101758.31;;;1.82;100.00
34241;BME280;20503;50.200;19.508;2023-04-27T04:28:29;101755.09;;;1.87;100.00
34241;BME280;20503;50.200;19.508;2023-04-27T04:33:36;101757.20;;;2.96;100.00
34241;BME280;20503;50.200;19.508;2023-04-27T04:38:44;101755.54;;;4.19;100.00
34241;BME280;20503;50.200;19.508;2023-04-27T04:43:52;101759.39;;;4.91;100.00
34241;BME280;20503;50.200;19.508;2023-04-27T04:48:59;101772.42;;;5.95;100.00
34241;BME280;20503;50.200;19.508;2023-04-27T04:54:07;101779.38;;;7.01;100.00
34241;BME280;20503;50.200;19.508;2023-04-27T04:59:15;101770.88;;;7.79;100.00
34241;BME280;20503;50.200;19.508;2023-04-27T05:04:23;101782.40;;;8.30;100.00
34241;BME280;20503;50.200;19.508;2023-04-27T05:09:30;101779.24;;;9.21;100.00
34241;BME280;20503;50.200;19.508;2023-04-27T05:14:38;101789.17;;;9.06;100.00
34241;BME280;20503;50.200;19.508;2023-04-27T05:19:45;101784.45;;;10.15;100.00
34241;BME280;20503;50.200;19.508;2023-04-27T05:24:54;101797.09;;;10.98;70.88
34241;BME280;20503;50.200;19.508;2023-04-27T05:30:02;101798.30;;;11.76;66.88
34241;BME280;20503;50.200;19.508;2023-04-27T05:35:10;101801.55;;;12.36;62.60
34241;BME280;20503;50.200;19.508;2023-04-27T05:40:17;101806.96;;;13.13;59.00
34241;BME280;20503;50.200;19.508;2023-04-27T05:45:25;101817.69;;;13.08;59.88
34241;BME280;20503;50.200;19.508;2023-04-27T05:50:32;101824.45;;;14.07;55.97
34241;BME280;20503;50.200;19.508;2023-04-27T05:55:40;101831.41;;;14.57;54.18
34241;BME280;20503;50.200;19.508;2023-04-27T06:00:47;101833.02;;;14.25;53.13
34241;BME280;20503;50.200;19.508;2023-04-27T06:05:56;101825.33;;;14.87;50.36
34241;BME280;20503;50.200;19.508;2023-04-27T06:11:03;101828.48;;;14.71;49.04
34241;BME280;20503;50.200;19.508;2023-04-27T06:16:10;101827.23;;;15.00;49.36
34241;BME280;20503;50.200;19.508;2023-04-27T06:21:18;101839.13;;;15.00;47.74
34241;BME280;20503;50.200;19.508;2023-04-27T06:26:26;101836.27;;;15.91;43.81
34241;BME280;20503;50.200;19.508;2023-04-27T06:31:34;101844.42;;;15.47;44.09
34241;BME280;20503;50.200;19.508;2023-04-27T06:36:41;101848.05;;;16.24;42.82
34241;BME280;20503;50.200;19.508;2023-04-27T06:41:49;101847.42;;;15.52;45.25
34241;BME280;20503;50.200;19.508;2023-04-27T06:46:57;101848.53;;;16.08;43.09
34241;BME280;20503;50.200;19.508;2023-04-27T06:52:04;101857.98;;;14.90;45.02
34241;BME280;20503;50.200;19.508;2023-04-27T06:57:12;101856.52;;;15.59;42.85
34241;BME280;20503;50.200;19.508;2023-04-27T07:02:19;101849.27;;;15.84;44.83
34241;BME280;20503;50.200;19.508;2023-04-27T07:07:28;101852.27;;;16.33;42.75
34241;BME280;20503;50.200;19.508;2023-04-27T07:12:36;101861.83;;;15.08;44.37
34241;BME280;20503;50.200;19.508;2023-04-27T07:17:42;101859.97;;;16.24;41.51
34241;BME280;20503;50.200;19.508;2023-04-27T07:22:50;101859.05;;;16.43;42.77
34241;BME280;20503;50.200;19.508;2023-04-27T07:27:57;101853.26;;;16.51;38.30
34241;BME280;20503;50.200;19.508;2023-04-27T07:33:06;101860.52;;;17.63;38.84
34241;BME280;20503;50.200;19.508;2023-04-27T07:38:13;101856.99;;;17.01;37.82
34241;BME280;20503;50.200;19.508;2023-04-27T07:43:20;101863.27;;;14.72;39.58
34241;BME280;20503;50.200;19.508;2023-04-27T07:48:31;101863.92;;;14.87;41.15
34241;BME280;20503;50.200;19.508;2023-04-27T07:53:36;101859.32;;;17.28;32.79
34241;BME280;20503;50.200;19.508;2023-04-27T07:58:43;101860.53;;;15.69;34.32
34241;BME280;20503;50.200;19.508;2023-04-27T08:03:51;101854.48;;;13.96;37.65
34241;BME280;20503;50.200;19.508;2023-04-27T08:08:59;101853.58;;;13.89;39.49
34241;BME280;20503;50.200;19.508;2023-04-27T08:14:06;101851.98;;;10.90;46.36
34241;BME280;20503;50.200;19.508;2023-04-27T08:19:15;101850.07;;;10.91;48.85
34241;BME280;20503;50.200;19.508;2023-04-27T08:24:22;101864.34;;;11.23;48.83
34241;BME280;20503;50.200;19.508;2023-04-27T08:29:30;101870.52;;;10.05;53.23
34241;BME280;20503;50.200;19.508;2023-04-27T08:34:37;101869.16;;;9.93;53.81
34241;BME280;20503;50.200;19.508;2023-04-27T08:39:46;101868.41;;;9.68;53.99
34241;BME280;20503;50.200;19.508;2023-04-27T08:44:52;101871.86;;;10.09;54.78
34241;BME280;20503;50.200;19.508;2023-04-27T08:50:00;101869.93;;;10.17;54.10
34241;BME280;20503;50.200;19.508;2023-04-27T08:55:08;101865.95;;;11.32;50.06
34241;BME280;20503;50.200;19.508;2023-04-27T09:00:16;101869.20;;;14.69;40.83
34241;BME280;20503;50.200;19.508;2023-04-27T09:05:23;101866.91;;;14.19;41.59
34241;BME280;20503;50.200;19.508;2023-04-27T09:15:49;101856.40;;;11.28;48.22
34241;BME280;20503;50.200;19.508;2023-04-27T09:20:53;101867.72;;;10.13;52.50
34241;BME280;20503;50.200;19.508;2023-04-27T09:25:56;101879.73;;;9.49;53.89
34241;BME280;20503;50.200;19.508;2023-04-27T09:31:02;101866.59;;;9.45;54.03
34241;BME280;20503;50.200;19.508;2023-04-27T09:36:09;101878.75;;;9.42;54.79
34241;BME280;20503;50.200;19.508;2023-04-27T09:41:17;101864.73;;;9.45;52.38
34241;BME280;20503;50.200;19.508;2023-04-27T09:46:26;101862.27;;;10.43;50.02
34241;BME280;20503;50.200;19.508;2023-04-27T09:51:32;101862.65;;;10.63;52.26
34241;BME280;20503;50.200;19.508;2023-04-27T10:01:56;101872.57;;;9.48;54.54
34241;BME280;20503;50.200;19.508;2023-04-27T10:07:03;101863.96;;;9.75;53.08
34241;BME280;20503;50.200;19.508;2023-04-27T10:22:40;101854.80;;;9.99;48.72
34241;BME280;20503;50.200;19.508;2023-04-27T10:27:41;101847.70;;;11.24;46.69
34241;BME280;20503;50.200;19.508;2023-04-27T10:32:52;101832.84;;;11.56;49.41
34241;BME280;20503;50.200;19.508;2023-04-27T10:43:08;101850.16;;;10.60;49.02
34241;BME280;20503;50.200;19.508;2023-04-27T10:48:13;101863.30;;;10.42;51.63
34241;BME280;20503;50.200;19.508;2023-04-27T10:53:18;101864.79;;;9.76;54.90
34241;BME280;20503;50.200;19.508;2023-04-27T10:58:22;101865.27;;;10.26;51.27
34241;BME280;20503;50.200;19.508;2023-04-27T11:03:23;101859.13;;;10.24;51.27
34241;BME280;20503;50.200;19.508;2023-04-27T11:08:25;101857.74;;;10.50;51.50
34241;BME280;20503;50.200;19.508;2023-04-27T11:13:32;101871.95;;;10.76;49.69
34241;BME280;20503;50.200;19.508;2023-04-27T11:18:39;101871.03;;;10.84;49.05
34241;BME280;20503;50.200;19.508;2023-04-27T11:23:46;101881.42;;;10.43;49.28
34241;BME280;20503;50.200;19.508;2023-04-27T11:29:00;101874.23;;;10.87;51.21
34241;BME280;20503;50.200;19.508;2023-04-27T11:34:14;101866.05;;;11.38;51.84
34241;BME280;20503;50.200;19.508;2023-04-27T11:39:16;101876.70;;;11.85;45.75
34241;BME280;20503;50.200;19.508;2023-04-27T11:44:26;101871.22;;;11.70;50.11
34241;BME280;20503;50.200;19.508;2023-04-27T11:49:28;101851.87;;;12.78;47.00
34241;BME280;20503;50.200;19.508;2023-04-27T11:54:30;101869.08;;;12.87;40.71
34241;BME280;20503;50.200;19.508;2023-04-27T11:59:39;101874.52;;;13.01;41.54
34241;BME280;20503;50.200;19.508;2023-04-27T12:04:48;101862.48;;;12.46;44.56
34241;BME280;20503;50.200;19.508;2023-04-27T12:09:55;101861.89;;;13.07;41.31
34241;BME280;20503;50.200;19.508;2023-04-27T12:15:03;101854.53;;;13.13;43.64
34241;BME280;20503;50.200;19.508;2023-04-27T12:20:11;101873.20;;;11.76;46.68
34241;BME280;20503;50.200;19.508;2023-04-27T12:25:19;101871.70;;;11.74;48.08
